Time;durP1;ratioP1;P1;durP2;ratioP2;P2;SDS_P1;SDS_P2;PMS_P1;PMS_P2;Temp;Humidity;BMP_temperature;BMP_pressure;BME280_temperature;BME280_humidity;BME280_pressure;Samples;Min_cycle;Max_cycle;Signal;HPM_P1;HPM_P2
2023/05/05 00:01:58;;;;;;;6.68;4.53;;;17.40;99.90;;;;;;5073282;28;20107;-46
2023/05/05 00:04:24;;;;;;;8.27;4.68;;;17.40;99.90;;;;;;5071895;28;20028;-47
2023/05/05 00:06:49;;;;;;;11.80;4.88;;;17.30;99.90;;;;;;5073285;28;20507;-42
2023/05/05 00:09:15;;;;;;;8.52;5.07;;;17.20;99.90;;;;;;5073327;28;20024;-43
2023/05/05 00:11:41;;;;;;;7.75;4.78;;;17.20;99.90;;;;;;5063880;28;20028;-42
2023/05/05 00:14:06;;;;;;;7.22;5.10;;;17.20;99.90;;;;;;5067104;28;20028;-42
2023/05/05 00:16:32;;;;;;;8.60;5.40;;;17.20;99.90;;;;;;5073268;28;20020;-44
2023/05/05 00:18:58;;;;;;;8.80;5.82;;;17.10;99.90;;;;;;5073373;28;20056;-43
2023/05/05 00:21:26;;;;;;;9.23;5.38;;;17.20;99.90;;;;;;5071563;28;20031;-44
2023/05/05 00:23:52;;;;;;;16.27;6.03;;;17.20;99.90;;;;;;5058603;28;20063;-43
2023/05/05 00:26:18;;;;;;;10.02;6.32;;;17.20;99.90;;;;;;5053118;28;20474;-47
2023/05/05 00:28:43;;;;;;;9.30;5.70;;;17.20;99.90;;;;;;5062780;28;20103;-42
2023/05/05 00:31:09;;;;;;;12.20;6.30;;;17.10;99.90;;;;;;5073009;28;20029;-42
2023/05/05 00:33:35;;;;;;;11.77;7.30;;;17.10;99.90;;;;;;5072807;28;20027;-42
2023/05/05 00:36:01;;;;;;;11.43;5.95;;;17.10;99.90;;;;;;5053808;28;20021;-42
2023/05/05 00:38:27;;;;;;;12.70;7.10;;;17.00;99.90;;;;;;5052723;28;20387;-43
2023/05/05 00:40:53;;;;;;;11.25;7.30;;;17.10;99.90;;;;;;5051243;28;20520;-42
2023/05/05 00:43:19;;;;;;;13.35;7.65;;;17.00;99.90;;;;;;5069016;28;20057;-41
2023/05/05 00:45:46;;;;;;;13.65;7.22;;;17.00;99.90;;;;;;5052634;28;20481;-41
2023/05/05 00:48:12;;;;;;;12.57;7.18;;;17.00;99.90;;;;;;5052967;28;20374;-44
2023/05/05 00:50:38;;;;;;;12.48;7.55;;;17.00;99.90;;;;;;5055774;28;20032;-44
2023/05/05 00:53:05;;;;;;;11.60;7.43;;;17.00;99.90;;;;;;5059337;28;20045;-42
2023/05/05 00:55:33;;;;;;;8.38;6.05;;;17.00;99.90;;;;;;5070370;28;20388;-43
2023/05/05 00:58:00;;;;;;;11.05;6.20;;;16.90;99.90;;;;;;5071776;28;20497;-40
2023/05/05 01:00:27;;;;;;;8.93;5.53;;;16.90;99.90;;;;;;5072592;28;20024;-45
2023/05/05 01:02:52;;;;;;;8.15;6.30;;;16.90;99.90;;;;;;5071293;28;20052;-43
2023/05/05 01:05:23;;;;;;;8.75;5.30;;;16.90;99.90;;;;;;5071726;28;20460;-40
2023/05/05 01:08:01;;;;;;;8.20;5.93;;;16.80;99.90;;;;;;5065614;28;20509;-42
2023/05/05 01:10:46;;;;;;;9.23;6.38;;;16.80;99.90;;;;;;5063673;28;20370;-41
2023/05/05 01:13:30;;;;;;;9.63;6.13;;;16.70;99.90;;;;;;5069196;28;20100;-43
2023/05/05 01:16:07;;;;;;;7.03;5.43;;;16.70;99.90;;;;;;5052557;28;20437;-41
2023/05/05 01:18:53;;;;;;;6.82;5.22;;;16.70;99.90;;;;;;5052872;28;20108;-41
2023/05/05 01:21:25;;;;;;;8.10;5.72;;;16.80;99.90;;;;;;5051297;28;20511;-43
2023/05/05 01:24:12;;;;;;;9.60;5.03;;;16.80;99.90;;;;;;5061252;28;20465;-41
2023/05/05 01:26:59;;;;;;;8.93;4.78;;;16.80;99.90;;;;;;5072290;28;20107;-42
2023/05/05 01:30:00;;;;;;;8.43;4.90;;;16.80;99.90;;;;;;5071332;28;20499;-41
2023/05/05 01:32:29;;;;;;;8.10;4.50;;;16.80;99.90;;;;;;5071146;28;20487;-43
2023/05/05 01:35:03;;;;;;;5.97;4.78;;;16.80;99.90;;;;;;5069646;28;20562;-45
2023/05/05 01:37:55;;;;;;;5.22;3.75;;;16.80;99.90;;;;;;5052267;28;20037;-46
2023/05/05 01:40:25;;;;;;;4.95;3.75;;;16.80;99.90;;;;;;5042742;28;20067;-43
2023/05/05 01:42:53;;;;;;;8.90;4.57;;;16.80;99.90;;;;;;5063481;28;20028;-41
2023/05/05 01:45:23;;;;;;;3.42;3.10;;;16.90;99.90;;;;;;5052162;28;20100;-41
2023/05/05 01:47:51;;;;;;;4.97;3.30;;;16.90;99.90;;;;;;5062067;28;20024;-45
2023/05/05 01:50:17;;;;;;;;;;;16.90;99.90;;;;;;5072598;28;20024;-43
2023/05/05 01:52:44;;;;;;;11.15;4.65;;;17.00;99.90;;;;;;5071880;28;19912;-41
2023/05/05 01:55:11;;;;;;;6.18;3.78;;;17.00;99.90;;;;;;5071746;28;20481;-43
2023/05/05 01:57:40;;;;;;;4.13;3.33;;;17.00;99.90;;;;;;5063411;28;20539;-45
2023/05/05 02:00:08;;;;;;;4.65;3.17;;;17.00;99.90;;;;;;5067783;28;20016;-43
2023/05/05 02:02:36;;;;;;;5.97;3.17;;;16.80;99.90;;;;;;5073633;28;20477;-46
2023/05/05 02:05:04;;;;;;;5.55;3.00;;;16.80;99.90;;;;;;5071679;28;20020;-42
2023/05/05 02:07:31;;;;;;;6.40;3.38;;;16.70;99.90;;;;;;5064404;28;20036;-43
2023/05/05 02:09:58;;;;;;;;;;;16.60;99.90;;;;;;5069578;28;20018;-43
2023/05/05 02:12:24;;;;;;;3.80;2.88;;;16.50;99.90;;;;;;5059266;28;20382;-44
2023/05/05 02:14:51;;;;;;;3.65;2.50;;;16.40;99.90;;;;;;5075431;28;20431;-43
2023/05/05 02:17:19;;;;;;;3.63;2.83;;;16.40;99.90;;;;;;5075273;28;20028;-43
2023/05/05 02:19:46;;;;;;;5.13;3.17;;;16.30;99.90;;;;;;5061839;28;20033;-45
2023/05/05 02:22:14;;;;;;;4.95;3.15;;;16.30;99.90;;;;;;5055072;28;20025;-43
2023/05/05 02:24:39;;;;;;;;;;;16.20;99.90;;;;;;5055955;28;20108;-43
2023/05/05 02:27:07;;;;;;;6.63;3.60;;;16.20;99.90;;;;;;5055188;28;20092;-45
2023/05/05 02:29:50;;;;;;;4.57;3.35;;;16.20;99.90;;;;;;5073461;28;20503;-44
2023/05/05 02:32:39;;;;;;;5.70;3.70;;;16.20;99.90;;;;;;5074910;28;20498;-42
2023/05/05 02:35:14;;;;;;;4.63;3.85;;;16.20;99.90;;;;;;5073759;28;20031;-44
2023/05/05 02:37:45;;;;;;;5.40;4.00;;;16.20;99.90;;;;;;5075086;28;20025;-44
2023/05/05 02:40:14;;;;;;;7.80;4.03;;;16.20;99.90;;;;;;5074214;28;20031;-45
2023/05/05 02:42:41;;;;;;;5.68;4.35;;;16.10;99.90;;;;;;5073568;28;20419;-43
2023/05/05 02:45:11;;;;;;;5.28;4.07;;;16.00;99.90;;;;;;5074813;28;20553;-43
2023/05/05 02:47:37;;;;;;;5.90;3.90;;;16.00;99.90;;;;;;5069726;28;20477;-41
2023/05/05 02:50:07;;;;;;;7.38;3.78;;;16.00;99.90;;;;;;5061689;28;20044;-43
2023/05/05 02:52:33;;;;;;;6.15;3.53;;;15.90;99.90;;;;;;5063278;28;20110;-42
2023/05/05 02:55:00;;;;;;;6.57;3.47;;;15.90;99.90;;;;;;5053490;28;20112;-43
2023/05/05 02:57:40;;;;;;;4.63;3.85;;;15.90;99.90;;;;;;5061904;28;20039;-43
2023/05/05 03:00:32;;;;;;;4.35;3.95;;;15.90;99.90;;;;;;5074805;28;20016;-41
2023/05/05 03:03:04;;;;;;;3.60;3.20;;;15.90;99.90;;;;;;5055998;28;20393;-47
2023/05/05 03:05:37;;;;;;;5.75;3.90;;;15.80;99.90;;;;;;5054460;28;20028;-42
2023/05/05 03:08:12;;;;;;;4.55;3.67;;;15.80;99.90;;;;;;5068762;28;20424;-45
2023/05/05 03:11:04;;;;;;;9.70;3.80;;;15.70;99.90;;;;;;5069014;28;20107;-43
2023/05/05 03:13:32;;;;;;;5.80;3.78;;;15.70;99.90;;;;;;5068035;28;20381;-45
2023/05/05 03:16:05;;;;;;;4.65;3.75;;;15.60;99.90;;;;;;5073413;28;20511;-42
2023/05/05 03:18:33;;;;;;;7.22;3.47;;;15.60;99.90;;;;;;5067006;28;20042;-42
2023/05/05 03:21:07;;;;;;;4.72;3.60;;;15.60;99.90;;;;;;5054381;28;20358;-48
2023/05/05 03:23:33;;;;;;;4.72;2.53;;;15.50;99.90;;;;;;5088577;28;20052;-43
2023/05/05 03:25:59;;;;;;;3.03;2.67;;;15.50;99.90;;;;;;5074061;28;20028;-48
2023/05/05 03:28:25;;;;;;;8.02;2.63;;;15.40;99.90;;;;;;5071424;28;20021;-41
2023/05/05 03:30:51;;;;;;;3.67;2.28;;;15.40;99.90;;;;;;5073997;28;20028;-42
2023/05/05 03:33:17;;;;;;;2.42;2.22;;;15.40;99.90;;;;;;5073942;28;20029;-43
2023/05/05 03:35:43;;;;;;;3.13;2.45;;;15.30;99.90;;;;;;5074184;28;20354;-43
2023/05/05 03:38:08;;;;;;;3.90;2.63;;;15.30;99.90;;;;;;5056354;28;20029;-43
2023/05/05 03:40:34;;;;;;;4.45;3.13;;;15.30;99.90;;;;;;5056251;28;20086;-42
2023/05/05 03:43:00;;;;;;;5.10;2.85;;;15.20;99.90;;;;;;5059706;28;20362;-38
2023/05/05 03:45:25;;;;;;;4.07;2.60;;;15.20;99.90;;;;;;5062632;28;20028;-36
2023/05/05 03:47:51;;;;;;;3.85;2.67;;;15.20;99.90;;;;;;5072277;28;20362;-39
2023/05/05 03:50:17;;;;;;;7.15;2.55;;;15.20;99.90;;;;;;5073590;28;20035;-37
2023/05/05 03:52:42;;;;;;;5.15;3.00;;;15.10;99.90;;;;;;5073387;28;20036;-37
2023/05/05 03:55:08;;;;;;;4.15;2.78;;;15.10;99.90;;;;;;5072384;28;20536;-37
2023/05/05 03:57:34;;;;;;;4.50;3.25;;;15.00;99.90;;;;;;5072140;28;20032;-38
2023/05/05 04:00:00;;;;;;;5.97;3.03;;;15.00;99.90;;;;;;5073391;28;20021;-42
2023/05/05 04:02:25;;;;;;;3.78;2.47;;;14.90;99.90;;;;;;5064354;28;20012;-43
2023/05/05 04:04:51;;;;;;;3.67;2.85;;;14.90;99.90;;;;;;5073362;28;20033;-42
2023/05/05 04:07:17;;;;;;;4.97;2.85;;;14.90;99.90;;;;;;5065834;28;20386;-41
2023/05/05 04:09:45;;;;;;;3.65;3.10;;;14.80;99.90;;;;;;5053377;28;20082;-41
2023/05/05 04:12:11;;;;;;;3.33;3.03;;;14.80;99.90;;;;;;5065881;28;20032;-42
2023/05/05 04:14:37;;;;;;;3.90;2.78;;;14.70;99.90;;;;;;5072137;28;20477;-46
2023/05/05 04:17:03;;;;;;;4.28;2.85;;;14.70;99.90;;;;;;5073150;28;20039;-43
2023/05/05 04:19:32;;;;;;;7.13;3.30;;;14.70;99.90;;;;;;5072210;28;20508;-43
2023/05/05 04:21:58;;;;;;;5.55;2.83;;;14.60;99.90;;;;;;5066900;28;20143;-43
2023/05/05 04:24:24;;;;;;;6.95;3.38;;;14.70;99.90;;;;;;5072089;28;20036;-44
2023/05/05 04:26:51;;;;;;;7.18;3.15;;;14.60;99.90;;;;;;5070926;28;20024;-45
2023/05/05 04:29:17;;;;;;;6.88;3.13;;;14.60;99.90;;;;;;5071010;28;20511;-41
2023/05/05 04:31:43;;;;;;;5.47;4.40;;;14.60;99.90;;;;;;5070767;28;20033;-42
2023/05/05 04:34:09;;;;;;;9.48;4.20;;;14.60;99.90;;;;;;5071560;28;20480;-43
2023/05/05 04:36:34;;;;;;;5.68;3.35;;;14.60;99.90;;;;;;5072221;28;20043;-42
2023/05/05 04:39:00;;;;;;;9.27;4.30;;;14.50;99.90;;;;;;5070870;28;20530;-44
2023/05/05 04:41:26;;;;;;;9.10;4.00;;;14.50;99.90;;;;;;5070576;28;20567;-44
2023/05/05 04:43:53;;;;;;;7.20;4.00;;;14.60;99.90;;;;;;5069398;28;20028;-40
2023/05/05 04:46:19;;;;;;;8.30;4.63;;;14.60;99.90;;;;;;5069021;28;20472;-41
2023/05/05 04:48:45;;;;;;;5.68;3.58;;;14.60;99.90;;;;;;5062743;28;20070;-42
2023/05/05 04:51:11;;;;;;;6.25;3.92;;;14.50;99.90;;;;;;5071584;28;20389;-41
2023/05/05 04:53:37;;;;;;;11.82;5.65;;;14.50;99.90;;;;;;5067180;28;20509;-42
2023/05/05 04:56:03;;;;;;;8.60;4.13;;;14.60;99.90;;;;;;5060801;28;20074;-46
2023/05/05 04:58:28;;;;;;;12.00;5.30;;;14.60;99.90;;;;;;5063473;28;20104;-42
2023/05/05 05:00:54;;;;;;;7.85;4.55;;;14.70;99.90;;;;;;5071305;28;20028;-50
2023/05/05 05:03:20;;;;;;;8.00;4.97;;;14.80;99.90;;;;;;5072351;28;20028;-43
2023/05/05 05:05:45;;;;;;;7.57;4.72;;;14.80;99.90;;;;;;5069383;28;20401;-42
2023/05/05 05:08:11;;;;;;;14.48;5.75;;;15.00;99.90;;;;;;5070144;28;20111;-47
2023/05/05 05:10:37;;;;;;;7.93;4.82;;;15.10;99.90;;;;;;5066914;28;20021;-38
2023/05/05 05:13:02;;;;;;;9.10;4.90;;;15.10;99.90;;;;;;5069164;28;20119;-44
2023/05/05 05:15:28;;;;;;;10.95;5.32;;;15.10;99.90;;;;;;5070144;28;20020;-41
2023/05/05 05:17:54;;;;;;;6.05;4.25;;;15.00;99.90;;;;;;5070599;28;20032;-42
2023/05/05 05:20:19;;;;;;;9.35;5.07;;;15.00;99.90;;;;;;5071147;28;20043;-42
2023/05/05 05:22:45;;;;;;;10.15;5.65;;;15.00;99.90;;;;;;5072223;28;20025;-41
2023/05/05 05:25:11;;;;;;;9.35;5.50;;;15.00;99.90;;;;;;5072408;28;20485;-41
2023/05/05 05:27:36;;;;;;;10.18;6.40;;;15.00;99.90;;;;;;5057434;28;20037;-42
2023/05/05 05:30:02;;;;;;;8.50;5.22;;;15.10;99.90;;;;;;5052489;28;20033;-42
2023/05/05 05:32:28;;;;;;;12.15;6.78;;;15.10;99.90;;;;;;5052380;28;20037;-41
2023/05/05 05:34:54;;;;;;;11.82;5.43;;;15.10;99.90;;;;;;5053400;28;20060;-40
2023/05/05 05:37:19;;;;;;;16.55;6.18;;;15.20;99.90;;;;;;5073804;28;20035;-41
2023/05/05 05:39:51;;;;;;;13.65;6.82;;;15.20;99.90;;;;;;5075955;28;20036;-43
2023/05/05 05:42:17;;;;;;;16.15;7.50;;;15.20;99.90;;;;;;5075598;28;20044;-48
2023/05/05 05:44:42;;;;;;;15.82;7.70;;;15.30;99.90;;;;;;5075346;28;20071;-40
2023/05/05 05:47:08;;;;;;;10.50;6.03;;;15.30;99.90;;;;;;5076014;28;20515;-42
2023/05/05 05:49:34;;;;;;;14.07;7.63;;;15.40;99.90;;;;;;5075889;28;20068;-44
2023/05/05 05:51:59;;;;;;;16.48;6.72;;;15.50;99.90;;;;;;5075734;28;20115;-41
2023/05/05 05:54:25;;;;;;;16.42;7.38;;;15.50;99.90;;;;;;5075650;28;20132;-41
2023/05/05 05:56:51;;;;;;;17.10;6.97;;;15.60;99.90;;;;;;5074365;28;20508;-44
2023/05/05 05:59:16;;;;;;;14.10;7.10;;;15.60;99.90;;;;;;5075713;28;20075;-40
2023/05/05 06:01:42;;;;;;;13.98;7.35;;;15.70;99.90;;;;;;5074064;28;20031;-42
2023/05/05 06:04:07;;;;;;;17.20;7.72;;;15.80;99.90;;;;;;5075515;28;20032;-43
2023/05/05 06:06:33;;;;;;;16.25;8.45;;;15.90;99.90;;;;;;5075726;28;20024;-41
2023/05/05 06:08:59;;;;;;;13.85;7.75;;;15.90;99.90;;;;;;5074479;28;20028;-42
2023/05/05 06:11:24;;;;;;;15.00;7.57;;;16.00;99.90;;;;;;5075706;28;20477;-44
2023/05/05 06:13:50;;;;;;;15.55;7.78;;;16.10;99.90;;;;;;5075381;28;20108;-41
2023/05/05 06:16:16;;;;;;;12.98;7.95;;;16.20;99.90;;;;;;5075553;28;20029;-44
2023/05/05 06:18:42;;;;;;;15.98;7.40;;;16.30;99.90;;;;;;5074907;28;20111;-47
2023/05/05 06:21:07;;;;;;;12.98;7.47;;;16.40;99.90;;;;;;5075169;28;20033;-42
2023/05/05 06:23:33;;;;;;;14.23;7.43;;;16.50;99.90;;;;;;5075221;28;20035;-43
2023/05/05 06:25:58;;;;;;;18.52;8.05;;;16.50;99.90;;;;;;5073194;28;20032;-43
2023/05/05 06:28:24;;;;;;;12.77;8.25;;;16.60;99.90;;;;;;5073305;28;20500;-46
2023/05/05 06:30:50;;;;;;;15.20;8.30;;;16.70;99.90;;;;;;5075373;28;20107;-42
2023/05/05 06:33:16;;;;;;;16.38;8.52;;;16.80;99.90;;;;;;5067584;28;20021;-44
2023/05/05 06:35:42;;;;;;;15.05;7.72;;;16.90;99.90;;;;;;5062377;28;20052;-39
2023/05/05 06:38:08;;;;;;;17.67;8.32;;;17.10;99.90;;;;;;5056186;28;20473;-43
2023/05/05 06:40:34;;;;;;;12.65;7.57;;;17.20;99.90;;;;;;5066254;28;20028;-42
2023/05/05 06:43:00;;;;;;;15.00;7.50;;;17.40;99.90;;;;;;5061976;28;20091;-46
2023/05/05 06:45:26;;;;;;;10.65;5.93;;;17.60;99.90;;;;;;5061819;28;20025;-41
2023/05/05 06:47:52;;;;;;;12.95;6.88;;;17.60;99.90;;;;;;5063318;28;20040;-43
2023/05/05 06:50:18;;;;;;;11.45;6.50;;;17.80;99.90;;;;;;5067225;28;20037;-43
2023/05/05 06:52:43;;;;;;;11.38;6.43;;;17.80;99.90;;;;;;5072808;28;20024;-39
2023/05/05 06:55:09;;;;;;;9.30;5.93;;;17.80;99.90;;;;;;5075022;28;20029;-46
2023/05/05 06:57:35;;;;;;;14.07;6.30;;;17.90;99.90;;;;;;5071965;28;20473;-41
2023/05/05 07:00:04;;;;;;;12.23;5.70;;;18.10;99.90;;;;;;5067155;28;20033;-43
2023/05/05 07:02:33;;;;;;;16.15;7.82;;;18.40;99.90;;;;;;5072498;28;20082;-43
2023/05/05 07:04:58;;;;;;;10.10;5.30;;;18.70;99.90;;;;;;5074565;28;20020;-49
2023/05/05 07:07:24;;;;;;;11.45;5.70;;;18.70;99.90;;;;;;5066535;28;20028;-43
2023/05/05 07:09:50;;;;;;;10.43;6.32;;;18.70;99.90;;;;;;5067531;28;20467;-42
2023/05/05 07:12:15;;;;;;;11.02;5.03;;;18.90;99.90;;;;;;5057751;28;20503;-43
2023/05/05 07:14:41;;;;;;;9.15;5.82;;;19.10;99.90;;;;;;5063477;28;20051;-43
2023/05/05 07:17:06;;;;;;;11.43;4.53;;;19.20;99.90;;;;;;5074311;28;20082;-47
2023/05/05 07:19:32;;;;;;;14.30;5.35;;;19.10;99.90;;;;;;5058490;28;20064;-42
2023/05/05 07:21:58;;;;;;;12.20;4.70;;;19.10;99.90;;;;;;5054442;28;20078;-44
2023/05/05 07:24:23;;;;;;;10.30;4.25;;;19.20;99.90;;;;;;5078956;28;20107;-44
2023/05/05 07:26:49;;;;;;;14.20;5.90;;;19.10;99.90;;;;;;5076666;28;20028;-46
2023/05/05 07:29:15;;;;;;;11.13;4.72;;;19.10;99.90;;;;;;5073975;28;20040;-35
2023/05/05 07:31:41;;;;;;;9.10;4.05;;;19.10;99.90;;;;;;5058342;28;20064;-39
2023/05/05 07:34:06;;;;;;;8.45;4.00;;;19.20;99.90;;;;;;5053917;28;20025;-42
2023/05/05 07:36:32;;;;;;;9.20;4.72;;;19.00;99.90;;;;;;5054135;28;20025;-35
2023/05/05 07:38:59;;;;;;;10.13;3.97;;;19.10;99.90;;;;;;5068814;28;20051;-40
2023/05/05 07:41:25;;;;;;;5.63;3.35;;;19.10;99.90;;;;;;5073557;28;20016;-38
2023/05/05 07:43:50;;;;;;;7.72;3.88;;;19.10;99.90;;;;;;5072884;28;20031;-34
2023/05/05 07:46:17;;;;;;;8.50;4.55;;;19.20;99.90;;;;;;5072229;28;20041;-41
2023/05/05 07:48:45;;;;;;;9.07;5.00;;;19.40;99.90;;;;;;5073509;28;20074;-40
2023/05/05 07:51:11;;;;;;;10.43;5.00;;;19.60;99.90;;;;;;5073640;28;20388;-39
2023/05/05 07:53:37;;;;;;;14.45;4.78;;;19.80;99.90;;;;;;5073340;28;20058;-40
2023/05/05 07:56:02;;;;;;;8.88;4.32;;;20.00;99.90;;;;;;5073606;28;20424;-42
2023/05/05 07:58:28;;;;;;;6.38;3.72;;;20.20;99.90;;;;;;5073201;28;20370;-47
2023/05/05 08:00:54;;;;;;;6.85;3.95;;;20.50;99.90;;;;;;5072189;28;20035;-42
2023/05/05 08:03:22;;;;;;;9.45;3.88;;;20.80;99.90;;;;;;5073418;28;20397;-41
2023/05/05 08:05:49;;;;;;;6.50;3.20;;;20.70;99.90;;;;;;5073244;28;20123;-45
2023/05/05 08:08:15;;;;;;;7.85;3.90;;;20.80;99.90;;;;;;5073540;28;20028;-45
2023/05/05 08:10:40;;;;;;;5.70;3.78;;;20.60;99.90;;;;;;5073363;28;20029;-41
2023/05/05 08:13:06;;;;;;;7.53;4.20;;;20.70;99.90;;;;;;5073322;28;20037;-42
2023/05/05 08:15:32;;;;;;;6.70;3.92;;;20.90;99.90;;;;;;5073457;28;20529;-47
2023/05/05 08:18:00;;;;;;;8.23;4.80;;;21.10;99.90;;;;;;5072710;28;20089;-42
2023/05/05 08:20:28;;;;;;;8.88;3.38;;;21.30;99.90;;;;;;5073065;28;20043;-44
2023/05/05 08:22:53;;;;;;;7.10;3.75;;;21.40;99.90;;;;;;5071533;28;20020;-46
2023/05/05 08:25:19;;;;;;;4.97;3.50;;;21.50;99.90;;;;;;5073358;28;20387;-52
2023/05/05 08:27:45;;;;;;;4.63;3.47;;;21.70;99.90;;;;;;5060311;28;20030;-40
2023/05/05 08:30:11;;;;;;;6.90;4.07;;;21.90;99.90;;;;;;5069619;28;20437;-45
2023/05/05 08:32:37;;;;;;;6.50;4.07;;;22.00;99.90;;;;;;5066179;28;20021;-43
2023/05/05 08:35:04;;;;;;;10.23;3.33;;;21.80;99.90;;;;;;5071283;28;20402;-43
2023/05/05 08:37:30;;;;;;;5.22;3.45;;;21.50;99.90;;;;;;5071563;28;20025;-42
2023/05/05 08:39:56;;;;;;;6.32;3.53;;;21.30;99.90;;;;;;5069750;28;20059;-42
2023/05/05 08:42:22;;;;;;;6.03;3.42;;;21.10;99.90;;;;;;5067550;28;20511;-39
2023/05/05 08:44:51;;;;;;;6.30;3.45;;;21.10;99.90;;;;;;5059636;28;20469;-42
2023/05/05 08:47:17;;;;;;;5.10;3.17;;;21.00;99.90;;;;;;5069250;28;20495;-44
2023/05/05 08:49:47;;;;;;;11.00;3.35;;;21.00;99.90;;;;;;5072401;28;20028;-45
2023/05/05 08:52:20;;;;;;;8.25;4.13;;;21.00;99.90;;;;;;5066965;28;20024;-43
2023/05/05 08:54:56;;;;;;;7.90;3.65;;;21.10;99.90;;;;;;5067946;28;20053;-43
2023/05/05 08:57:31;;;;;;;4.30;3.38;;;21.10;99.90;;;;;;5059104;28;20021;-43
2023/05/05 08:59:57;;;;;;;5.30;3.65;;;20.90;99.90;;;;;;5066283;28;20449;-43
2023/05/05 09:02:28;;;;;;;3.40;2.90;;;20.80;99.90;;;;;;5060048;28;20052;-44
2023/05/05 09:04:54;;;;;;;4.40;2.60;;;20.80;99.90;;;;;;5070443;28;20037;-41
2023/05/05 09:07:20;;;;;;;9.13;3.28;;;20.80;99.90;;;;;;5070815;28;20031;-43
2023/05/05 09:09:47;;;;;;;5.60;3.08;;;20.80;99.90;;;;;;5056379;28;20542;-39
2023/05/05 09:12:14;;;;;;;3.35;2.60;;;20.60;99.90;;;;;;5067699;28;20480;-41
2023/05/05 09:14:40;;;;;;;;;;;20.50;99.90;;;;;;5072615;28;20518;-44
2023/05/05 09:17:05;;;;;;;5.93;3.30;;;20.30;99.90;;;;;;5068744;28;19951;-42
2023/05/05 09:19:31;;;;;;;5.25;3.30;;;20.10;99.90;;;;;;5076452;28;20074;-48
2023/05/05 09:21:57;;;;;;;4.13;2.63;;;20.00;99.90;;;;;;5074841;28;20028;-41
2023/05/05 09:24:22;;;;;;;8.60;3.58;;;19.90;99.90;;;;;;5105746;28;20370;-38
2023/05/05 09:26:48;;;;;;;4.50;2.70;;;19.90;99.90;;;;;;5073887;28;20053;-43
2023/05/05 09:29:21;;;;;;;8.50;3.70;;;19.90;99.90;;;;;;5076684;28;20524;-43
2023/05/05 09:32:09;;;;;;;7.35;3.78;;;19.80;99.90;;;;;;5073463;28;20063;-42
2023/05/05 09:34:36;;;;;;;16.92;3.40;;;19.80;99.90;;;;;;5074314;28;20032;-43
2023/05/05 09:37:02;;;;;;;11.30;3.08;;;19.60;99.90;;;;;;5075987;28;20485;-48
2023/05/05 09:39:28;;;;;;;7.30;2.60;;;19.00;99.90;;;;;;5075932;28;20020;-45
2023/05/05 09:41:53;;;;;;;8.48;2.70;;;18.10;99.90;;;;;;5069347;28;20032;-45
2023/05/05 09:44:36;;;;;;;9.65;5.20;;;17.40;99.90;;;;;;5055992;28;20066;-43
2023/05/05 09:47:01;;;;;;;6.63;2.55;;;16.60;99.90;;;;;;5066301;28;20028;-45
2023/05/05 09:49:29;;;;;;;4.43;1.85;;;16.10;99.90;;;;;;5067704;28;20021;-44
2023/05/05 09:51:56;;;;;;;;;;;15.80;99.90;;;;;;5061920;28;20033;-48
2023/05/05 09:54:29;;;;;;;4.07;1.63;;;15.60;99.90;;;;;;5075728;28;20376;-41
2023/05/05 09:56:58;;;;;;;5.28;2.03;;;15.50;99.90;;;;;;5073601;28;20587;-43
2023/05/05 09:59:24;;;;;;;3.53;1.60;;;15.40;99.90;;;;;;5062187;28;20476;-42
2023/05/05 10:01:50;;;;;;;3.65;1.80;;;15.40;99.90;;;;;;5066104;28;20021;-44
2023/05/05 10:04:27;;;;;;;2.28;1.58;;;15.30;99.90;;;;;;5075934;28;20527;-42
2023/05/05 10:06:55;;;;;;;9.07;1.70;;;15.20;99.90;;;;;;5074509;28;20384;-42
2023/05/05 10:09:20;;;;;;;;;;;15.10;99.90;;;;;;5074971;28;20025;-42
2023/05/05 10:11:46;;;;;;;3.20;1.80;;;15.10;99.90;;;;;;5068571;28;19909;-44
2023/05/05 10:14:16;;;;;;;3.75;1.98;;;15.20;99.90;;;;;;5068570;28;20400;-43
2023/05/05 10:16:53;;;;;;;6.38;3.03;;;15.30;99.90;;;;;;5070768;28;20024;-44
2023/05/05 10:19:21;;;;;;;5.18;2.88;;;15.30;99.90;;;;;;5057744;28;20040;-36
2023/05/05 10:21:50;;;;;;;9.60;2.80;;;15.20;99.90;;;;;;5055302;28;20028;-47
2023/05/05 10:24:24;;;;;;;5.00;3.17;;;15.20;99.90;;;;;;5058632;28;20528;-38
2023/05/05 10:26:52;;;;;;;8.18;3.50;;;15.20;99.90;;;;;;5057844;28;20020;-40
2023/05/05 10:29:30;;;;;;;8.98;3.40;;;15.30;99.90;;;;;;5069065;28;20067;-40
2023/05/05 10:32:04;;;;;;;9.05;3.53;;;15.30;99.90;;;;;;5072751;28;20051;-40
2023/05/05 10:34:53;;;;;;;6.50;4.05;;;15.40;99.90;;;;;;5067027;28;20507;-41
2023/05/05 10:37:20;;;;;;;7.90;3.30;;;15.40;99.90;;;;;;5058895;28;20032;-46
2023/05/05 10:39:47;;;;;;;4.13;3.15;;;15.40;99.90;;;;;;5069063;28;20017;-43
2023/05/05 10:42:14;;;;;;;6.57;3.35;;;15.40;99.90;;;;;;5074359;28;20096;-41
2023/05/05 10:44:41;;;;;;;9.02;3.15;;;15.40;99.90;;;;;;5068824;28;20020;-46
2023/05/05 10:47:07;;;;;;;10.23;3.53;;;15.40;99.90;;;;;;5063466;28;20351;-43
2023/05/05 10:49:48;;;;;;;6.23;3.17;;;15.40;99.90;;;;;;5070495;28;20036;-42
2023/05/05 10:52:22;;;;;;;5.03;2.65;;;15.40;99.90;;;;;;5066686;28;20028;-38
2023/05/05 10:55:02;;;;;;;9.20;3.22;;;15.30;99.90;;;;;;5062077;28;20500;-41
2023/05/05 10:57:30;;;;;;;3.03;2.55;;;15.10;99.90;;;;;;5063227;28;20473;-41
2023/05/05 10:59:56;;;;;;;3.30;2.67;;;14.90;99.90;;;;;;5074606;28;20533;-41
2023/05/05 11:02:26;;;;;;;6.93;2.85;;;14.80;99.90;;;;;;5074516;28;20055;-41
2023/05/05 11:05:08;;;;;;;3.30;2.40;;;14.80;99.90;;;;;;5070989;28;20028;-44
2023/05/05 11:07:38;;;;;;;9.57;3.38;;;14.80;99.90;;;;;;5074145;28;20476;-41
2023/05/05 11:10:09;;;;;;;8.40;3.03;;;14.80;99.90;;;;;;5067997;28;20051;-43
2023/05/05 11:12:58;;;;;;;4.70;2.50;;;14.80;99.90;;;;;;5054481;28;20067;-45
2023/05/05 11:15:26;;;;;;;5.22;3.15;;;14.80;99.90;;;;;;5054338;28;20463;-40
2023/05/05 11:18:01;;;;;;;13.75;3.63;;;14.80;99.90;;;;;;5054253;28;20037;-45
2023/05/05 11:20:35;;;;;;;7.90;3.15;;;14.90;99.90;;;;;;5064635;28;20436;-41
2023/05/05 11:23:01;;;;;;;7.63;3.83;;;14.80;99.90;;;;;;5063769;28;20028;-42
2023/05/05 11:25:36;;;;;;;7.25;2.90;;;14.80;99.90;;;;;;5071555;28;20430;-42
2023/05/05 11:28:05;;;;;;;9.93;3.17;;;14.90;99.90;;;;;;5072788;28;20029;-38
2023/05/05 11:30:31;;;;;;;9.75;3.50;;;14.80;99.90;;;;;;5067993;28;20028;-42
2023/05/05 11:33:27;;;;;;;16.13;4.25;;;14.80;99.90;;;;;;5066142;28;20100;-37
2023/05/05 11:36:03;;;;;;;7.03;2.55;;;14.80;99.90;;;;;;5059488;28;20036;-45
2023/05/05 11:38:38;;;;;;;6.90;3.58;;;14.70;99.90;;;;;;5060119;28;20480;-44
2023/05/05 11:41:42;;;;;;;9.90;3.97;;;14.70;99.90;;;;;;5069811;28;20028;-44
2023/05/05 11:44:11;;;;;;;9.77;3.83;;;14.70;99.90;;;;;;5069518;28;20044;-42
2023/05/05 11:47:03;;;;;;;7.10;3.65;;;14.70;99.90;;;;;;5069131;28;20016;-46
2023/05/05 11:49:33;;;;;;;7.70;3.65;;;14.70;99.90;;;;;;5055010;28;20401;-43
2023/05/05 11:52:01;;;;;;;12.30;4.72;;;14.70;99.90;;;;;;5072853;28;20028;-43
2023/05/05 11:54:27;;;;;;;6.35;3.08;;;14.70;99.90;;;;;;5070931;28;20516;-40
2023/05/05 11:57:06;;;;;;;6.43;3.70;;;14.60;99.90;;;;;;5129211;27;20382;-40
2023/05/05 11:59:32;;;;;;;8.75;3.83;;;14.60;99.90;;;;;;5111971;27;20028;-39
2023/05/05 12:01:58;;;;;;;5.68;4.07;;;14.60;99.90;;;;;;5125425;27;20030;-43
2023/05/05 12:04:25;;;;;;;8.77;4.70;;;14.60;99.90;;;;;;5118300;27;20031;-41
2023/05/05 12:06:50;;;;;;;7.88;4.00;;;14.70;99.90;;;;;;5112798;28;20084;-41
2023/05/05 12:09:21;;;;;;;8.75;4.68;;;14.70;99.90;;;;;;5131073;28;20032;-41
2023/05/05 12:11:56;;;;;;;12.45;5.78;;;14.80;99.90;;;;;;5129073;28;20532;-35
2023/05/05 12:14:23;;;;;;;12.18;5.85;;;14.80;99.90;;;;;;5112950;27;20503;-35
2023/05/05 12:17:03;;;;;;;15.55;6.93;;;14.90;99.90;;;;;;5129242;27;20120;-35
2023/05/05 12:19:32;;;;;;;12.05;5.97;;;14.90;99.90;;;;;;5130788;28;20027;-35
2023/05/05 12:22:02;;;;;;;11.10;6.38;;;14.90;99.90;;;;;;5128947;27;20472;-37
2023/05/05 12:24:30;;;;;;;11.15;5.70;;;15.00;99.90;;;;;;5126264;28;20416;-32
2023/05/05 12:27:12;;;;;;;10.80;6.25;;;15.00;99.90;;;;;;5119058;28;20038;-32
2023/05/05 12:29:38;;;;;;;8.02;4.70;;;15.00;99.90;;;;;;5130121;27;20387;-36
2023/05/05 12:32:04;;;;;;;9.32;5.45;;;15.00;99.90;;;;;;5123760;27;20020;-37
2023/05/05 12:34:30;;;;;;;13.27;6.00;;;15.00;99.90;;;;;;5121503;27;20016;-38
2023/05/05 12:36:57;;;;;;;10.15;4.32;;;14.90;99.90;;;;;;5124762;27;20059;-49
2023/05/05 12:39:32;;;;;;;5.90;4.00;;;15.00;99.90;;;;;;5116482;28;20402;-37
2023/05/05 12:42:05;;;;;;;7.82;3.25;;;14.90;99.90;;;;;;5128463;28;20027;-37
2023/05/05 12:44:38;;;;;;;8.02;3.40;;;14.80;99.90;;;;;;5121683;28;20020;-34
2023/05/05 12:47:04;;;;;;;10.18;3.55;;;14.70;99.90;;;;;;5129404;28;20028;-33
2023/05/05 12:49:33;;;;;;;5.95;2.80;;;14.60;99.90;;;;;;5128925;27;20498;-41
2023/05/05 12:51:59;;;;;;;6.65;3.72;;;14.60;99.90;;;;;;5126550;28;20062;-34
2023/05/05 12:54:28;;;;;;;7.03;3.97;;;14.60;99.90;;;;;;5129175;27;20405;-40